Holt, Michigan
Current Conditions -  °F | °C
As of 8:51 PM on Friday 21 Nov 2014 (Local Time) from KTEW Reporting Station
Clear Clear  
Wind Chill: 13°   Ceiling: Unl
Heat Index: 20°   Visibility: 10mi
Dew Point: 13°   Wind: 6mph
Humidity: 73%   Direction: 180°S
Pressure: 30.33"   Gusts: NA
Location:  42.64°N, 84.51°W
Report Text: KTEW 220151Z AUTO 18005KT 10SM CLR M06/M11 A3033 RMK AO2 T10651107
Loading
Personal Weather Stations






























Interactive Weather Map New forecast layout! Learn more

10-Day Weather Forecast

Advertisements
Track Severe Weather on mobile